createdAt,value
2023-02-24T00:04:52.593Z,38.80
2023-02-24T00:09:56.761Z,38.70
2023-02-24T00:14:59.754Z,38.60
2023-02-24T00:20:02.766Z,38.60
2023-02-24T00:25:08.090Z,38.60
2023-02-24T00:30:12.229Z,38.60
2023-02-24T00:35:15.775Z,38.50
2023-02-24T00:40:23.436Z,38.50
2023-02-24T00:45:30.729Z,38.40
2023-02-24T00:50:33.921Z,38.50
2023-02-24T00:55:38.114Z,38.40
2023-02-24T01:00:43.353Z,38.40
2023-02-24T01:05:46.181Z,38.40
2023-02-24T01:11:18.968Z,38.40
2023-02-24T01:16:22.053Z,38.40
2023-02-24T01:21:24.918Z,38.40
2023-02-24T01:26:30.904Z,38.40
2023-02-24T01:31:33.839Z,38.40
2023-02-24T01:36:36.782Z,38.40
2023-02-24T01:41:44.497Z,38.30
2023-02-24T01:46:49.639Z,38.40
2023-02-24T01:51:55.689Z,38.30
2023-02-24T01:57:00.682Z,38.30
2023-02-24T02:02:07.013Z,38.30
2023-02-24T02:07:12.354Z,38.30
2023-02-24T02:12:17.155Z,38.30
2023-02-24T02:17:31.410Z,38.20
2023-02-24T02:23:06.674Z,38.20
2023-02-24T02:28:45.475Z,38.10
2023-02-24T02:34:22.763Z,38.10
2023-02-24T02:39:35.293Z,38.10
2023-02-24T02:44:41.307Z,38.00
2023-02-24T02:49:49.686Z,38.00
2023-02-24T02:54:57.716Z,37.90
2023-02-24T03:00:09.696Z,37.90
2023-02-24T03:05:21.329Z,37.90
2023-02-24T03:10:27.894Z,37.80
2023-02-24T03:15:33.639Z,37.70
2023-02-24T03:20:43.041Z,37.70
2023-02-24T03:25:53.272Z,37.70
2023-02-24T03:31:03.654Z,37.60
2023-02-24T03:36:08.127Z,37.50
2023-02-24T03:41:12.481Z,37.50
2023-02-24T03:46:16.992Z,37.50
2023-02-24T03:51:24.325Z,37.10
2023-02-24T03:56:35.555Z,37.00
2023-02-24T04:01:47.471Z,36.90
2023-02-24T04:06:56.428Z,36.70
2023-02-24T04:12:05.527Z,36.60
2023-02-24T04:17:13.374Z,36.60
2023-02-24T04:22:24.617Z,36.50
2023-02-24T04:27:29.202Z,36.70
2023-02-24T04:32:32.465Z,36.90
2023-02-24T04:37:39.672Z,36.90
2023-02-24T04:42:46.537Z,37.00
2023-02-24T04:47:51.230Z,36.90
2023-02-24T04:52:57.356Z,36.90
2023-02-24T04:58:01.039Z,37.00
2023-02-24T05:03:06.193Z,37.00
2023-02-24T05:08:11.819Z,37.00
2023-02-24T05:13:16.148Z,37.00
2023-02-24T05:18:20.401Z,37.00
2023-02-24T05:23:27.864Z,36.90
2023-02-24T05:28:31.912Z,36.60
2023-02-24T05:33:35.580Z,36.50
2023-02-24T05:38:39.884Z,36.30
2023-02-24T05:43:44.680Z,36.30
2023-02-24T05:48:52.110Z,36.30
2023-02-24T05:53:56.453Z,36.20
2023-02-24T05:59:03.103Z,36.30
2023-02-24T06:04:08.075Z,36.80
2023-02-24T06:09:14.041Z,37.00
2023-02-24T06:14:17.463Z,37.10
2023-02-24T06:19:20.671Z,37.80
2023-02-24T06:24:27.375Z,38.20
2023-02-24T06:29:31.473Z,38.10
2023-02-24T06:34:34.451Z,39.00
2023-02-24T06:39:38.640Z,39.30
2023-02-24T06:44:42.291Z,39.40
2023-02-24T06:49:45.142Z,41.80
2023-02-24T06:54:52.452Z,42.20
2023-02-24T06:59:56.115Z,40.90
2023-02-24T07:04:58.994Z,40.30
2023-02-24T07:10:03.186Z,40.10
2023-02-24T07:15:07.132Z,40.00
2023-02-24T07:20:25.091Z,40.10
2023-02-24T07:25:33.772Z,40.10
2023-02-24T07:30:37.122Z,39.90
2023-02-24T07:35:41.557Z,40.10
2023-02-24T07:40:46.947Z,40.00
2023-02-24T07:45:50.011Z,39.80
2023-02-24T07:50:53.000Z,39.70
2023-02-24T07:55:57.173Z,40.00
2023-02-24T08:01:08.526Z,39.80
2023-02-24T08:06:15.614Z,40.40
2023-02-24T08:11:24.986Z,40.60
2023-02-24T08:16:39.359Z,39.90
2023-02-24T08:21:47.263Z,40.40
2023-02-24T08:27:04.330Z,40.40
2023-02-24T08:32:09.419Z,40.20
2023-02-24T08:37:15.679Z,40.60
2023-02-24T08:42:20.119Z,40.00
2023-02-24T08:47:31.015Z,40.10
2023-02-24T08:52:35.574Z,40.00
2023-02-24T08:57:39.800Z,40.00
2023-02-24T09:02:42.638Z,40.00
2023-02-24T09:07:54.537Z,39.90
2023-02-24T09:12:58.878Z,39.90
2023-02-24T09:18:07.493Z,39.80
2023-02-24T09:23:20.132Z,39.80
2023-02-24T09:28:25.929Z,39.80
2023-02-24T09:33:38.826Z,39.80
2023-02-24T09:44:18.445Z,40.10
2023-02-24T09:49:24.932Z,40.10
2023-02-24T09:54:35.333Z,40.10
2023-02-24T10:00:01.106Z,40.10
2023-02-24T10:05:12.498Z,40.10
2023-02-24T10:10:20.584Z,40.00
2023-02-24T10:15:59.244Z,40.10
2023-02-24T10:21:15.484Z,40.10
2023-02-24T10:26:31.688Z,40.20
2023-02-24T10:31:46.066Z,40.40
2023-02-24T10:36:50.793Z,40.50
2023-02-24T10:41:57.532Z,40.60
2023-02-24T10:47:11.525Z,40.70
2023-02-24T10:52:33.388Z,40.80
2023-02-24T10:57:58.629Z,40.80
2023-02-24T11:03:22.188Z,40.80
2023-02-24T11:08:54.346Z,41.00
2023-02-24T11:14:16.284Z,41.00
2023-02-24T11:19:21.695Z,40.80
2023-02-24T11:24:24.686Z,40.40
2023-02-24T11:29:39.157Z,40.20
2023-02-24T11:34:51.119Z,40.10
2023-02-24T11:39:59.863Z,40.60
2023-02-24T11:45:09.468Z,40.10
2023-02-24T11:50:26.774Z,40.10
2023-02-24T11:55:38.724Z,40.10
2023-02-24T12:00:48.920Z,40.00
2023-02-24T12:05:57.427Z,39.90
2023-02-24T12:11:07.070Z,40.00
2023-02-24T12:16:16.851Z,40.10
2023-02-24T12:21:30.591Z,40.10
2023-02-24T12:26:42.659Z,40.10
2023-02-24T12:31:54.634Z,40.20
2023-02-24T12:37:22.986Z,40.10
2023-02-24T12:42:34.820Z,40.20
2023-02-24T12:47:50.625Z,40.20
2023-02-24T12:53:06.419Z,40.30
2023-02-24T12:58:14.461Z,40.30
2023-02-24T13:03:29.619Z,40.20
2023-02-24T13:08:55.463Z,40.80
2023-02-24T13:14:04.427Z,40.20
2023-02-24T13:19:18.814Z,40.10
2023-02-24T13:24:25.511Z,40.00
2023-02-24T13:29:28.342Z,40.00
2023-02-24T13:34:33.500Z,40.10
2023-02-24T13:39:41.345Z,40.10
2023-02-24T13:44:49.962Z,40.10
2023-02-24T13:50:03.671Z,40.00
2023-02-24T13:55:24.329Z,40.00
2023-02-24T14:00:41.454Z,40.10
2023-02-24T14:05:44.689Z,40.00
2023-02-24T14:10:54.198Z,40.20
2023-02-24T14:15:57.798Z,40.20
2023-02-24T14:21:00.844Z,40.40
2023-02-24T14:26:08.888Z,40.50
2023-02-24T14:31:14.149Z,40.60
2023-02-24T14:36:20.050Z,40.90
2023-02-24T14:41:27.718Z,41.20
2023-02-24T14:46:31.705Z,41.20
2023-02-24T14:51:36.558Z,41.40
2023-02-24T14:56:41.479Z,41.20
2023-02-24T15:01:48.390Z,41.20
2023-02-24T15:06:51.480Z,41.10
2023-02-24T15:11:56.667Z,41.10
2023-02-24T15:17:02.849Z,41.00
2023-02-24T15:22:18.575Z,41.00
2023-02-24T15:27:26.385Z,41.00
2023-02-24T15:32:31.868Z,41.00
2023-02-24T15:37:42.045Z,41.10
2023-02-24T15:42:51.168Z,41.00
2023-02-24T15:47:56.094Z,40.90
2023-02-24T15:53:01.318Z,40.90
2023-02-24T15:58:05.495Z,40.90
2023-02-24T16:03:08.347Z,40.70
2023-02-24T16:08:12.708Z,40.60
2023-02-24T16:13:20.468Z,40.50
2023-02-24T16:18:26.026Z,40.30
2023-02-24T16:23:28.855Z,40.30
2023-02-24T16:28:33.782Z,40.30
2023-02-24T16:33:51.898Z,40.30
2023-02-24T16:38:56.730Z,40.20
2023-02-24T16:44:00.927Z,40.30
2023-02-24T16:49:03.782Z,40.20
2023-02-24T16:54:06.897Z,40.20
2023-02-24T16:59:11.140Z,40.00
2023-02-24T17:04:14.386Z,39.90
2023-02-24T17:09:18.057Z,39.90
2023-02-24T17:14:22.552Z,39.90
2023-02-24T17:19:25.401Z,39.80
2023-02-24T17:24:28.496Z,39.80
2023-02-24T17:29:32.736Z,39.80
2023-02-24T17:34:35.613Z,39.70
2023-02-24T17:39:38.584Z,39.70
2023-02-24T17:44:42.826Z,39.60
2023-02-24T17:49:45.656Z,39.40
2023-02-24T17:54:48.645Z,39.80
2023-02-24T17:59:52.865Z,39.60
2023-02-24T18:04:55.719Z,39.60
2023-02-24T18:09:59.482Z,39.60
2023-02-24T18:15:08.535Z,39.60
2023-02-24T18:20:14.113Z,39.50
2023-02-24T18:25:17.212Z,39.20
2023-02-24T18:30:21.524Z,39.20
2023-02-24T18:35:24.525Z,39.30
2023-02-24T18:40:28.187Z,39.10
2023-02-24T18:45:32.894Z,38.90
2023-02-24T18:50:35.705Z,38.70
2023-02-24T18:55:38.548Z,38.50
2023-02-24T19:00:45.098Z,38.40
2023-02-24T19:05:48.000Z,38.90
2023-02-24T19:10:50.843Z,38.70
2023-02-24T19:15:55.072Z,38.40
2023-02-24T19:20:58.072Z,38.60
2023-02-24T19:26:00.948Z,39.60
2023-02-24T19:31:05.362Z,39.10
2023-02-24T19:36:09.091Z,39.30
2023-02-24T19:41:12.073Z,39.20
2023-02-24T19:46:18.086Z,39.20
2023-02-24T19:51:22.677Z,39.10
2023-02-24T19:56:26.286Z,38.70
2023-02-24T20:01:31.360Z,38.70
2023-02-24T20:06:36.561Z,38.70
2023-02-24T20:11:40.625Z,38.50
2023-02-24T20:16:45.365Z,38.40
2023-02-24T20:21:48.456Z,38.60
2023-02-24T20:26:51.489Z,38.70
2023-02-24T20:31:55.829Z,38.60
2023-02-24T20:36:58.757Z,38.50
2023-02-24T20:42:02.015Z,38.50
2023-02-24T20:47:06.218Z,38.10
2023-02-24T20:52:09.049Z,38.60
2023-02-24T20:57:11.945Z,38.60
2023-02-24T21:02:16.124Z,38.70
2023-02-24T21:07:18.960Z,38.60
2023-02-24T21:12:21.825Z,38.70
2023-02-24T21:17:26.095Z,38.60
2023-02-24T21:22:31.188Z,38.80
2023-02-24T21:27:34.103Z,39.10
2023-02-24T21:32:38.447Z,39.00
2023-02-24T21:37:41.328Z,38.90
2023-02-24T21:42:47.037Z,38.80
2023-02-24T21:47:51.698Z,38.50
2023-02-24T21:52:55.885Z,38.80
2023-02-24T21:57:58.750Z,38.90
2023-02-24T22:03:02.982Z,38.90
2023-02-24T22:08:05.859Z,38.90
2023-02-24T22:13:08.698Z,38.90
2023-02-24T22:18:13.008Z,38.90
2023-02-24T22:23:15.999Z,38.80
2023-02-24T22:28:18.865Z,38.70
2023-02-24T22:33:23.130Z,38.80
2023-02-24T22:38:26.023Z,38.90
2023-02-24T22:43:29.573Z,38.50
2023-02-24T22:48:35.043Z,38.60
2023-02-24T22:53:40.900Z,38.60
2023-02-24T22:58:45.254Z,38.60
2023-02-24T23:03:49.729Z,38.60
2023-02-24T23:08:53.360Z,38.50
2023-02-24T23:13:57.723Z,38.40
2023-02-24T23:19:04.349Z,38.40
2023-02-24T23:24:10.866Z,38.50
2023-02-24T23:29:15.815Z,38.40
2023-02-24T23:34:20.065Z,38.40
2023-02-24T23:39:23.931Z,38.30
2023-02-24T23:44:27.154Z,38.30
2023-02-24T23:49:46.186Z,38.30
2023-02-24T23:54:52.526Z,38.30
2023-02-24T23:59:55.802Z,38.30
